METAR Data
IDs: Format: Raw Decoded Include TAF

Data at: 0150 UTC 29 Nov 2020

METAR for:KEBS (Webster City Muni, IA, US)
Text:KEBS 290135Z AUTO 22010KT 10SM CLR 05/02 A2996 RMK AO2
Temperature: 5.0°C ( 41°F)
Dewpoint: 2.0°C ( 36°F) [RH = 81%]
Pressure (altimeter):29.96 inches Hg (1014.6 mb)
Winds:from the SW (220 degrees) at 12 MPH (10 knots; 5.1 m/s)
Visibility:10 or more sm (16+ km)
Ceiling:at least 12,000 feet AGL
Clouds:sky clear below 12,000 feet AGL
QC Flag:automated observation with no human augmentation